Time;durP1;ratioP1;P1;durP2;ratioP2;P2;SDS_P1;SDS_P2;PMS_P1;PMS_P2;Temp;Humidity;BMP_temperature;BMP_pressure;BME280_temperature;BME280_humidity;BME280_pressure;Samples;Min_cycle;Max_cycle;Signal;HPM_P1;HPM_P2
2023/12/31 00:02:19;;;;;;;2.83;1.50;;;;;;;9.03;100.00;100333.09;5116971;28;20054;-63
2023/12/31 00:05:07;;;;;;;3.10;1.52;;;;;;;9.03;100.00;100324.94;5120772;27;20051;-65
2023/12/31 00:07:56;;;;;;;4.22;1.55;;;;;;;9.02;100.00;100317.84;5132207;27;20054;-65
2023/12/31 00:10:44;;;;;;;4.10;1.70;;;;;;;9.01;100.00;100303.47;5123043;27;20506;-66
2023/12/31 00:13:32;;;;;;;4.25;1.60;;;;;;;9.01;100.00;100306.19;5096917;28;20512;-65
2023/12/31 00:16:21;;;;;;;3.80;1.30;;;;;;;9.02;100.00;100296.13;5084649;28;20055;-65
2023/12/31 00:19:09;;;;;;;4.38;1.60;;;;;;;9.01;100.00;100283.63;5102777;28;20048;-64
2023/12/31 00:21:57;;;;;;;3.95;1.58;;;;;;;9.02;100.00;100285.25;5082733;28;20483;-65
2023/12/31 00:24:45;;;;;;;2.72;1.52;;;;;;;9.02;100.00;100285.25;5079971;28;20048;-63
2023/12/31 00:27:33;;;;;;;3.65;1.58;;;;;;;9.03;100.00;100267.88;5092425;28;20125;-66
2023/12/31 00:30:21;;;;;;;1.45;1.17;;;;;;;9.06;100.00;100267.31;5076633;28;20059;-65
2023/12/31 00:33:10;;;;;;;6.78;1.73;;;;;;;9.05;100.00;100263.00;5091849;28;20458;-65
2023/12/31 00:36:00;;;;;;;4.03;1.40;;;;;;;9.03;100.00;100259.72;5114619;27;20058;-65
2023/12/31 00:38:48;;;;;;;3.97;1.83;;;;;;;9.02;100.00;100250.75;5125430;27;20048;-66
2023/12/31 00:41:37;;;;;;;3.60;1.38;;;;;;;9.03;100.00;100244.22;5086686;28;20059;-65
2023/12/31 00:44:24;;;;;;;1.77;1.25;;;;;;;9.02;100.00;100231.75;5090952;28;20051;-64
2023/12/31 00:47:12;;;;;;;3.38;1.80;;;;;;;9.02;100.00;100228.19;5111995;28;20051;-63
2023/12/31 00:50:00;;;;;;;4.10;1.85;;;;;;;9.00;100.00;100225.75;5092856;28;20055;-63
2023/12/31 00:52:48;;;;;;;6.57;2.00;;;;;;;9.00;100.00;100225.75;5077159;28;20058;-64
2023/12/31 00:55:38;;;;;;;4.03;1.83;;;;;;;9.00;100.00;100219.50;5078026;28;20138;-65
2023/12/31 00:58:27;;;;;;;3.65;1.52;;;;;;;8.99;100.00;100212.44;5092829;28;20571;-65
2023/12/31 01:01:15;;;;;;;4.07;1.58;;;;;;;8.98;100.00;100199.94;5094380;28;20055;-64
2023/12/31 01:04:03;;;;;;;2.67;1.50;;;;;;;8.98;100.00;100191.81;5097646;28;20039;-65
2023/12/31 01:06:51;;;;;;;5.18;1.75;;;;;;;8.99;100.00;100190.69;5096719;28;20039;-63
2023/12/31 01:09:39;;;;;;;3.90;1.92;;;;;;;8.99;100.00;100190.69;5080031;28;20047;-65
2023/12/31 01:12:27;;;;;;;3.55;1.88;;;;;;;9.01;100.00;100193.97;5076475;28;20450;-63
2023/12/31 01:15:15;;;;;;;2.92;1.55;;;;;;;9.00;100.00;100186.91;5083440;28;20067;-64
2023/12/31 01:18:03;;;;;;;4.10;1.63;;;;;;;9.01;100.00;100183.91;5092693;28;20077;-65
2023/12/31 01:20:51;;;;;;;5.47;2.03;;;;;;;8.98;100.00;100184.47;5101271;28;20047;-65
2023/12/31 01:23:39;;;;;;;3.60;1.70;;;;;;;8.99;100.00;100172.50;5076923;28;20427;-65
2023/12/31 01:26:27;;;;;;;4.32;1.75;;;;;;;9.00;100.00;100165.97;5107342;28;20067;-65
2023/12/31 01:29:15;;;;;;;3.10;1.60;;;;;;;8.96;100.00;100157.53;5116241;28;20415;-65
2023/12/31 01:32:03;;;;;;;3.42;1.70;;;;;;;9.00;100.00;100148.88;5072793;28;20191;-63
2023/12/31 01:34:55;;;;;;;4.20;1.73;;;;;;;8.99;100.00;100136.34;5077127;28;20052;-63
2023/12/31 01:37:43;;;;;;;5.45;1.63;;;;;;;8.99;100.00;100152.66;5075521;28;20116;-64
2023/12/31 01:40:31;;;;;;;2.60;1.67;;;;;;;9.00;100.00;100143.44;5081438;28;20039;-64
2023/12/31 01:43:20;;;;;;;3.20;1.80;;;;;;;8.99;100.00;100142.59;5076654;28;20055;-66
2023/12/31 01:46:10;;;;;;;4.32;1.90;;;;;;;8.99;100.00;100136.34;5077799;28;20055;-64
2023/12/31 01:49:02;;;;;;;2.05;1.25;;;;;;;8.99;100.00;100133.63;5082092;28;20080;-64
2023/12/31 01:51:50;;;;;;;7.43;1.95;;;;;;;8.98;100.00;100132.84;5109463;28;20173;-65
2023/12/31 01:54:38;;;;;;;3.25;1.40;;;;;;;8.98;100.00;100123.88;5088031;28;20112;-64
2023/12/31 01:57:29;;;;;;;2.85;1.80;;;;;;;8.97;100.00;100123.03;5086979;28;20047;-65
2023/12/31 02:00:17;;;;;;;4.43;1.92;;;;;;;8.96;100.00;100122.22;5098903;28;20048;-66
2023/12/31 02:03:05;;;;;;;3.42;1.95;;;;;;;8.96;100.00;100105.94;5080904;28;20434;-65
2023/12/31 02:05:53;;;;;;;6.47;1.75;;;;;;;8.96;100.00;100100.50;5066171;28;20419;-65
2023/12/31 02:08:41;;;;;;;1.80;1.50;;;;;;;8.96;100.00;100105.94;5080146;28;20186;-65
2023/12/31 02:11:29;;;;;;;3.63;1.60;;;;;;;8.97;100.00;100095.88;5080900;28;20059;-64
2023/12/31 02:14:17;;;;;;;4.85;1.77;;;;;;;8.98;100.00;100097.50;5100106;28;20122;-64
2023/12/31 02:17:05;;;;;;;4.38;1.90;;;;;;;8.99;100.00;100084.72;5099135;28;20101;-64
2023/12/31 02:19:53;;;;;;;3.25;1.90;;;;;;;8.98;100.00;100074.97;5101352;28;20188;-64
2023/12/31 02:22:41;;;;;;;3.92;1.83;;;;;;;8.94;100.00;100072.78;5115547;28;20051;-64
2023/12/31 02:25:30;;;;;;;2.60;1.60;;;;;;;8.94;100.00;100063.81;5080068;28;20090;-65
2023/12/31 02:28:18;;;;;;;2.78;1.63;;;;;;;8.94;100.00;100059.19;5099414;28;20483;-65
2023/12/31 02:31:07;;;;;;;3.05;1.80;;;;;;;8.95;100.00;100049.16;5086804;28;20114;-64
2023/12/31 02:33:55;;;;;;;2.95;1.52;;;;;;;8.95;100.00;100054.59;5066564;28;20134;-63
2023/12/31 02:36:43;;;;;;;2.17;1.80;;;;;;;8.94;100.00;100040.19;5085116;28;20151;-63
2023/12/31 02:39:31;;;;;;;3.08;1.60;;;;;;;8.93;100.00;100035.03;5096143;28;20052;-63
2023/12/31 02:42:19;;;;;;;6.20;2.20;;;;;;;8.93;100.00;100029.59;5119477;28;20071;-62
2023/12/31 02:45:07;;;;;;;2.97;1.80;;;;;;;8.92;100.00;100026.09;5105399;28;20075;-66
2023/12/31 02:47:55;;;;;;;4.70;1.85;;;;;;;8.93;100.00;100014.09;5116214;28;20048;-64
2023/12/31 02:50:44;;;;;;;2.08;1.85;;;;;;;8.93;100.00;100008.69;5110105;28;20043;-64
2023/12/31 02:53:32;;;;;;;4.22;1.98;;;;;;;8.92;100.00;100001.63;5108169;28;20052;-63
2023/12/31 02:56:21;;;;;;;3.95;2.40;;;;;;;8.92;100.00;99984.50;5134538;27;20126;-64
2023/12/31 02:59:09;;;;;;;3.88;2.00;;;;;;;8.94;100.00;99988.56;5134881;27;20130;-64
2023/12/31 03:01:57;;;;;;;3.55;1.90;;;;;;;8.93;100.00;99978.00;5110982;28;20126;-64
2023/12/31 03:04:45;;;;;;;2.78;1.70;;;;;;;8.93;100.00;99965.22;5085783;27;20085;-65
2023/12/31 03:07:34;;;;;;;2.67;1.88;;;;;;;8.93;100.00;99961.69;5079835;28;20052;-64
2023/12/31 03:10:22;;;;;;;2.35;1.63;;;;;;;8.93;100.00;99957.06;5080073;28;20134;-65
2023/12/31 03:13:10;;;;;;;2.25;1.83;;;;;;;8.93;100.00;99959.78;5099663;28;20062;-62
2023/12/31 03:16:04;;;;;;;4.15;1.90;;;;;;;8.93;100.00;99965.22;5114032;28;20058;-65
2023/12/31 03:18:53;;;;;;;2.40;2.10;;;;;;;8.93;100.00;99954.34;5087524;28;20039;-65
2023/12/31 03:21:42;;;;;;;5.82;2.15;;;;;;;8.92;100.00;99947.28;5099932;28;20490;-64
2023/12/31 03:24:31;;;;;;;3.55;1.98;;;;;;;8.92;100.00;99931.00;5100490;27;20448;-65
2023/12/31 03:27:19;;;;;;;3.33;1.70;;;;;;;8.93;100.00;99924.47;5098997;28;20130;-65
2023/12/31 03:30:08;;;;;;;1.92;1.70;;;;;;;8.93;100.00;99921.75;5080729;28;20047;-65
2023/12/31 03:32:57;;;;;;;3.05;1.77;;;;;;;8.94;100.00;99912.50;5093064;28;20127;-64
2023/12/31 03:35:45;;;;;;;3.53;1.77;;;;;;;8.93;100.00;99908.16;5087565;28;20495;-64
2023/12/31 03:38:34;;;;;;;5.88;2.00;;;;;;;8.95;100.00;99894.31;5096688;28;20541;-65
2023/12/31 03:41:23;;;;;;;3.88;1.88;;;;;;;8.96;100.00;99893.19;5097915;28;20403;-64
2023/12/31 03:44:11;;;;;;;4.50;2.20;;;;;;;8.98;100.00;99887.50;5097553;28;20043;-64
2023/12/31 03:46:59;;;;;;;2.95;1.80;;;;;;;8.96;100.00;99866.84;5099144;28;20043;-64
2023/12/31 03:49:47;;;;;;;2.45;1.67;;;;;;;9.00;100.00;99845.38;5078217;27;20174;-65
2023/12/31 03:52:38;;;;;;;2.25;1.73;;;;;;;9.03;100.00;99849.44;5064660;28;20047;-63
2023/12/31 03:55:26;;;;;;;3.03;1.80;;;;;;;9.05;100.00;99839.09;5093193;28;20047;-63
2023/12/31 03:58:15;;;;;;;3.53;1.75;;;;;;;9.04;100.00;99832.81;5077301;28;20040;-63
2023/12/31 04:01:04;;;;;;;2.97;1.80;;;;;;;9.04;100.00;99821.16;5072223;28;20404;-64
2023/12/31 04:03:53;;;;;;;2.58;1.90;;;;;;;9.04;100.00;99821.94;5106295;27;20103;-64
2023/12/31 04:06:42;;;;;;;3.67;2.10;;;;;;;9.05;100.00;99814.63;5077797;28;20048;-65
2023/12/31 04:09:31;;;;;;;4.82;2.03;;;;;;;9.03;100.00;99805.94;5093149;28;20123;-65
2023/12/31 04:12:19;;;;;;;5.13;2.25;;;;;;;9.03;100.00;99803.22;5105118;27;20169;-64
2023/12/31 04:15:08;;;;;;;1.98;1.58;;;;;;;9.02;100.00;99804.31;5112553;28;20050;-63
2023/12/31 04:17:56;;;;;;;3.33;1.83;;;;;;;9.02;100.00;99790.72;5111863;28;20407;-65
2023/12/31 04:20:44;;;;;;;4.10;2.10;;;;;;;9.01;100.00;99783.69;5112474;28;20185;-64
2023/12/31 04:23:32;;;;;;;5.57;2.10;;;;;;;8.99;100.00;99789.38;5111493;28;20047;-64
2023/12/31 04:26:20;;;;;;;3.25;2.00;;;;;;;8.97;100.00;99783.41;5082116;28;20063;-65
2023/12/31 04:29:08;;;;;;;4.82;1.92;;;;;;;8.98;100.00;99768.75;5076558;28;20515;-64
2023/12/31 04:31:56;;;;;;;7.72;2.17;;;;;;;8.99;100.00;99761.41;5077152;28;20131;-64
2023/12/31 04:34:44;;;;;;;3.80;1.85;;;;;;;9.02;100.00;99758.97;5086099;28;20123;-63
2023/12/31 04:37:33;;;;;;;2.60;1.70;;;;;;;9.03;100.00;99759.75;5097701;28;20093;-63
2023/12/31 04:40:21;;;;;;;3.70;1.85;;;;;;;9.04;100.00;99747.78;5097506;27;20043;-65
2023/12/31 04:43:09;;;;;;;3.83;1.83;;;;;;;9.05;100.00;99733.13;5117098;27;20040;-65
2023/12/31 04:45:57;;;;;;;4.45;1.92;;;;;;;9.05;100.00;99727.69;5114492;27;20054;-63
2023/12/31 04:48:45;;;;;;;3.38;2.38;;;;;;;9.03;100.00;99732.59;5117381;27;20043;-66
2023/12/31 04:51:34;;;;;;;3.55;2.13;;;;;;;9.01;100.00;99723.91;5109465;28;20043;-63
2023/12/31 04:54:22;;;;;;;2.70;1.80;;;;;;;9.04;100.00;99726.06;5098060;28;20048;-63
2023/12/31 04:57:10;;;;;;;5.45;2.20;;;;;;;9.01;100.00;99718.47;5113793;27;20504;-63
2023/12/31 04:59:58;;;;;;;5.63;2.47;;;;;;;8.99;100.00;99702.44;5105882;28;20111;-63
2023/12/31 05:02:46;;;;;;;3.33;2.22;;;;;;;8.99;100.00;99701.66;5111251;28;20491;-64
2023/12/31 05:05:34;;;;;;;5.70;2.40;;;;;;;8.99;100.00;99701.66;5111925;27;20047;-65
2023/12/31 05:08:22;;;;;;;3.72;2.30;;;;;;;8.94;100.00;99695.16;5113386;28;20051;-64
2023/12/31 05:11:10;;;;;;;2.80;2.20;;;;;;;8.91;100.00;99695.72;5096745;28;20073;-62
2023/12/31 05:13:58;;;;;;;3.60;2.55;;;;;;;8.90;100.00;99682.44;5096362;28;20165;-63
2023/12/31 05:16:46;;;;;;;4.10;2.45;;;;;;;8.88;100.00;99668.34;5110570;28;20043;-63
2023/12/31 05:19:35;;;;;;;4.57;2.35;;;;;;;8.90;100.00;99672.38;5097622;28;20522;-63
2023/12/31 05:22:23;;;;;;;4.18;2.55;;;;;;;8.92;100.00;99670.19;5095719;28;20126;-63
2023/12/31 05:25:11;;;;;;;4.50;2.38;;;;;;;8.91;100.00;99657.69;5111345;28;20051;-63
2023/12/31 05:27:59;;;;;;;3.58;2.35;;;;;;;8.91;100.00;99651.47;5110265;28;20496;-63
2023/12/31 05:30:46;;;;;;;3.53;2.30;;;;;;;8.90;100.00;99649.84;5111454;28;20488;-63
2023/12/31 05:33:35;;;;;;;3.45;2.55;;;;;;;8.91;100.00;99635.97;5097699;28;20491;-64
2023/12/31 05:36:23;;;;;;;5.13;2.38;;;;;;;8.91;100.00;99640.59;5096972;28;20511;-62
2023/12/31 05:39:11;;;;;;;5.70;2.30;;;;;;;8.91;100.00;99622.38;5105296;28;20039;-65
2023/12/31 05:41:59;;;;;;;4.22;2.35;;;;;;;8.92;100.00;99610.44;5116843;28;20049;-64
2023/12/31 05:44:47;;;;;;;5.85;2.60;;;;;;;8.96;100.00;99630.47;5131508;28;20392;-63
2023/12/31 05:47:35;;;;;;;3.38;2.40;;;;;;;8.99;100.00;99622.84;5111687;28;20043;-63
2023/12/31 05:50:34;;;;;;;5.13;2.30;;;;;;;9.03;100.00;99604.91;5110452;28;20525;-64
2023/12/31 05:53:22;;;;;;;3.35;2.20;;;;;;;9.03;100.00;99594.84;5085375;28;20052;-63
2023/12/31 05:56:10;;;;;;;4.28;2.50;;;;;;;9.02;100.00;99603.25;5131490;28;20043;-65
2023/12/31 05:58:58;;;;;;;2.95;2.33;;;;;;;9.00;100.00;99589.19;5081425;28;20043;-65
2023/12/31 06:01:46;;;;;;;4.75;2.40;;;;;;;9.00;100.00;99591.91;5078053;28;20137;-65
2023/12/31 06:04:34;;;;;;;3.40;2.30;;;;;;;8.98;100.00;99588.66;5091186;28;20044;-64
2023/12/31 06:07:23;;;;;;;3.70;2.55;;;;;;;8.99;100.00;99582.91;5082686;28;20043;-60
2023/12/31 06:10:11;;;;;;;3.75;2.60;;;;;;;8.99;100.00;99582.91;5110036;28;20046;-64
2023/12/31 06:12:59;;;;;;;5.53;2.83;;;;;;;9.01;100.00;99585.34;5090887;28;20052;-63
2023/12/31 06:15:47;;;;;;;6.18;2.72;;;;;;;8.99;100.00;99584.81;5095885;28;20044;-63
2023/12/31 06:18:35;;;;;;;4.35;2.50;;;;;;;8.96;100.00;99581.56;5117336;28;20054;-63
2023/12/31 06:21:23;;;;;;;4.28;2.53;;;;;;;8.93;100.00;99574.00;5087654;28;20124;-63
2023/12/31 06:24:11;;;;;;;3.28;2.40;;;;;;;8.93;100.00;99573.22;5096676;28;20128;-63
2023/12/31 06:26:59;;;;;;;3.50;2.70;;;;;;;8.91;100.00;99554.47;5096595;28;20488;-64
2023/12/31 06:29:47;;;;;;;7.70;2.72;;;;;;;8.94;100.00;99566.66;5111280;28;20524;-64
2023/12/31 06:32:35;;;;;;;4.30;2.70;;;;;;;8.93;100.00;99546.03;5091267;28;20089;-64
2023/12/31 06:35:23;;;;;;;4.32;2.67;;;;;;;8.94;100.00;99553.88;5078981;28;20477;-65
2023/12/31 06:38:11;;;;;;;5.53;2.67;;;;;;;8.94;100.00;99553.09;5101944;28;20463;-65
2023/12/31 06:41:08;;;;;;;3.90;2.70;;;;;;;8.94;100.00;99547.66;5097703;28;20476;-63
2023/12/31 06:43:56;;;;;;;4.07;2.80;;;;;;;8.93;100.00;99543.31;5113203;28;20047;-64
2023/12/31 06:46:44;;;;;;;6.57;2.92;;;;;;;8.92;100.00;99539.81;5099414;28;20046;-64
2023/12/31 06:49:32;;;;;;;3.90;2.83;;;;;;;8.90;100.00;99530.34;5114448;28;20079;-65
2023/12/31 06:52:20;;;;;;;5.43;2.80;;;;;;;8.90;100.00;99519.47;5093899;28;20089;-64
2023/12/31 06:55:10;;;;;;;7.50;2.72;;;;;;;8.90;100.00;99520.28;5100193;28;20131;-64
2023/12/31 06:57:58;;;;;;;4.20;3.00;;;;;;;8.89;100.00;99517.84;5127382;28;20039;-64
2023/12/31 07:00:46;;;;;;;5.10;2.90;;;;;;;8.91;100.00;99496.63;5104192;28;20420;-66
2023/12/31 07:03:34;;;;;;;4.18;2.97;;;;;;;8.92;100.00;99499.06;4396167;28;10000218;-66
2023/12/31 07:06:22;;;;;;;3.55;2.67;;;;;;;8.92;100.00;99500.94;5098325;28;20040;-64
2023/12/31 07:09:11;;;;;;;4.95;2.70;;;;;;;8.93;100.00;99489.81;5121717;28;20046;-65
2023/12/31 07:12:00;;;;;;;6.07;2.70;;;;;;;8.93;100.00;99489.00;5116212;27;20569;-65
2023/12/31 07:14:48;;;;;;;7.10;3.03;;;;;;;8.94;100.00;99485.16;5095230;28;20547;-66
2023/12/31 07:17:36;;;;;;;3.92;2.80;;;;;;;8.94;100.00;99469.69;5103873;27;20043;-65
2023/12/31 07:20:24;;;;;;;3.72;2.78;;;;;;;8.98;100.00;99483.50;5099933;27;20424;-65
2023/12/31 07:23:12;;;;;;;6.25;2.90;;;;;;;8.99;100.00;99478.88;5109036;28;20048;-65
2023/12/31 07:26:00;;;;;;;4.75;2.78;;;;;;;8.99;100.00;99479.69;5095285;27;20453;-62
2023/12/31 07:28:48;;;;;;;7.15;3.15;;;;;;;8.99;100.00;99463.38;5123859;27;20047;-65
2023/12/31 07:31:36;;;;;;;5.05;2.83;;;;;;;9.02;100.00;99467.41;5081617;27;20469;-66
2023/12/31 07:34:24;;;;;;;9.25;3.17;;;;;;;9.04;100.00;99457.06;5103317;27;20051;-65
2023/12/31 07:37:12;;;;;;;7.03;3.13;;;;;;;9.05;100.00;99450.56;5096572;27;20102;-66
2023/12/31 07:40:00;;;;;;;5.65;3.30;;;;;;;9.06;100.00;99452.16;5110555;27;20055;-66
2023/12/31 07:42:51;;;;;;;5.05;2.83;;;;;;;9.07;100.00;99442.94;5093060;27;20058;-66
2023/12/31 07:45:39;;;;;;;5.93;3.00;;;;;;;9.07;100.00;99438.28;5094755;27;20188;-66
2023/12/31 07:48:27;;;;;;;5.65;3.20;;;;;;;9.09;100.00;99437.97;5129866;27;20073;-66
2023/12/31 07:51:15;;;;;;;4.60;3.20;;;;;;;9.09;100.00;99440.69;5103984;27;20131;-65
2023/12/31 07:54:03;;;;;;;4.32;2.80;;;;;;;9.11;100.00;99436.59;5096977;28;20116;-66
2023/12/31 07:56:51;;;;;;;5.22;2.90;;;;;;;9.12;100.00;99421.91;5093808;27;20047;-66
2023/12/31 07:59:39;;;;;;;6.20;3.30;;;;;;;9.14;100.00;99425.16;5088364;28;20182;-66
2023/12/31 08:02:27;;;;;;;4.13;3.05;;;;;;;9.15;100.00;99417.81;5095329;27;20043;-65
2023/12/31 08:05:15;;;;;;;5.90;3.60;;;;;;;9.15;100.00;99401.50;5121435;27;20162;-67
2023/12/31 08:08:07;;;;;;;4.82;3.00;;;;;;;9.17;100.00;99418.31;5094000;28;20039;-66
2023/12/31 08:10:55;;;;;;;7.45;3.17;;;;;;;9.17;100.00;99400.09;5101280;27;20187;-66
2023/12/31 08:13:43;;;;;;;8.00;3.72;;;;;;;9.18;100.00;99400.91;5081386;28;20052;-66
2023/12/31 08:16:31;;;;;;;5.85;3.42;;;;;;;9.20;100.00;99395.19;5092030;28;20047;-65
2023/12/31 08:19:19;;;;;;;6.50;3.15;;;;;;;9.20;100.00;99387.84;5111383;28;20058;-66
2023/12/31 08:22:07;;;;;;;6.15;3.40;;;;;;;9.21;100.00;99394.88;5110933;28;20380;-66
2023/12/31 08:24:55;;;;;;;6.07;3.60;;;;;;;9.22;100.00;99385.63;5098020;28;20047;-66
2023/12/31 08:27:43;;;;;;;6.32;3.70;;;;;;;9.21;100.00;99389.44;5090322;28;20047;-65
2023/12/31 08:30:33;;;;;;;5.47;3.22;;;;;;;9.23;100.00;99391.88;5073432;28;20039;-66
2023/12/31 08:33:21;;;;;;;7.07;3.40;;;;;;;9.25;100.00;99395.13;5068946;28;20133;-65
2023/12/31 08:36:11;;;;;;;8.15;3.60;;;;;;;9.35;100.00;99394.94;5113019;27;20042;-67
2023/12/31 08:38:59;;;;;;;7.68;3.67;;;;;;;9.39;100.00;99385.13;5119431;27;20473;-66
2023/12/31 08:41:47;;;;;;;16.45;5.32;;;;;;;9.63;100.00;99395.88;5103819;27;20050;-66
2023/12/31 08:44:35;;;;;;;7.93;3.70;;;;;;;9.59;100.00;99389.41;5115638;27;20047;-67
2023/12/31 08:47:37;;;;;;;12.02;4.28;;;;;;;9.67;100.00;99396.91;5076100;28;20040;-66
2023/12/31 08:50:26;;;;;;;12.80;4.85;;;;;;;9.71;100.00;99376.16;5091472;28;20143;-66
2023/12/31 08:53:14;;;;;;;14.93;4.93;;;;;;;9.66;100.00;99384.41;5078061;28;20416;-65
2023/12/31 08:56:02;;;;;;;15.68;5.60;;;;;;;9.78;100.00;99386.66;5091818;27;20402;-65
2023/12/31 08:58:50;;;;;;;19.02;5.03;;;;;;;9.79;100.00;99391.81;5133939;27;20088;-66
2023/12/31 09:01:38;;;;;;;9.30;3.22;;;;;;;9.64;100.00;99397.47;5135888;27;20050;-66
2023/12/31 09:04:31;;;;;;;8.30;3.60;;;;;;;9.78;100.00;99381.22;5135829;27;20537;-67
2023/12/31 09:07:19;;;;;;;8.00;3.47;;;;;;;9.72;100.00;99383.22;5082953;28;20044;-66
2023/12/31 09:10:08;;;;;;;7.97;3.10;;;;;;;9.90;100.00;99383.47;5092668;28;20404;-68
2023/12/31 09:12:55;;;;;;;18.95;5.00;;;;;;;9.94;100.00;99389.94;5091360;28;20056;-68
2023/12/31 09:15:45;;;;;;;16.80;5.43;;;;;;;10.18;100.00;99387.84;5090460;28;20044;-67
2023/12/31 09:18:33;;;;;;;7.22;2.85;;;;;;;10.01;100.00;99404.75;5111338;28;20036;-66
2023/12/31 09:21:21;;;;;;;9.57;4.43;;;;;;;10.24;100.00;99389.34;5096983;28;20043;-66
2023/12/31 09:24:09;;;;;;;10.38;3.67;;;;;;;10.28;100.00;99418.72;5113226;28;20555;-67
2023/12/31 09:26:57;;;;;;;14.05;4.80;;;;;;;10.31;100.00;99399.09;5113300;28;20047;-66
2023/12/31 09:29:46;;;;;;;11.23;4.15;;;;;;;10.59;100.00;99403.44;5112600;28;20047;-66
2023/12/31 09:32:34;;;;;;;11.57;4.10;;;;;;;10.56;100.00;99414.94;5096805;28;20056;-66
2023/12/31 09:35:22;;;;;;;11.15;4.13;;;;;;;10.72;100.00;99422.81;5112212;28;20381;-66
2023/12/31 09:38:10;;;;;;;9.68;3.20;;;;;;;10.63;100.00;99409.06;5104524;28;20046;-65
2023/12/31 09:40:58;;;;;;;9.05;3.40;;;;;;;10.88;100.00;99413.22;5117420;28;20045;-67
2023/12/31 09:43:47;;;;;;;10.35;3.10;;;;;;;10.66;100.00;99417.47;5117963;28;20047;-67
2023/12/31 09:46:38;;;;;;;7.50;3.00;;;;;;;10.72;100.00;99420.06;5132091;28;20046;-66
2023/12/31 09:49:26;;;;;;;7.63;2.92;;;;;;;10.51;100.00;99425.09;5103267;28;20047;-67
2023/12/31 09:52:15;;;;;;;8.32;2.90;;;;;;;10.49;100.00;99413.75;5112274;28;20051;-66
2023/12/31 09:55:04;;;;;;;5.70;2.60;;;;;;;10.53;100.00;99429.13;5097273;28;20051;-66
2023/12/31 09:57:53;;;;;;;5.53;2.67;;;;;;;10.44;100.00;99420.09;5097083;28;20043;-67
2023/12/31 10:00:41;;;;;;;8.30;2.60;;;;;;;10.32;100.00;99422.47;5100703;28;20073;-67
2023/12/31 10:03:29;;;;;;;5.57;2.67;;;;;;;10.31;100.00;99442.66;5104321;28;20483;-67
2023/12/31 10:06:17;;;;;;;7.07;2.95;;;;;;;10.28;100.00;99441.34;5117655;28;20182;-66
2023/12/31 10:09:06;;;;;;;4.38;2.45;;;;;;;10.20;100.00;99439.28;5105185;28;20071;-67
2023/12/31 10:11:54;;;;;;;5.18;2.40;;;;;;;10.19;100.00;99434.94;5100460;28;20048;-67
2023/12/31 10:14:42;;;;;;;5.22;2.47;;;;;;;10.44;100.00;99441.88;5100621;28;20047;-66
2023/12/31 10:17:32;;;;;;;4.85;2.40;;;;;;;10.49;100.00;99428.16;5087647;28;20568;-66
2023/12/31 10:20:20;;;;;;;4.60;2.25;;;;;;;10.56;100.00;99419.56;5114479;28;20518;-66
2023/12/31 10:23:08;;;;;;;4.25;2.25;;;;;;;10.34;100.00;99425.69;5099907;28;20046;-67
2023/12/31 10:25:58;;;;;;;6.35;2.75;;;;;;;10.42;100.00;99419.56;5115840;28;20523;-67
2023/12/31 10:28:46;;;;;;;4.00;2.20;;;;;;;10.31;100.00;99429.03;5099944;28;20509;-66
2023/12/31 10:31:34;;;;;;;5.35;2.20;;;;;;;10.11;100.00;99422.81;5115200;28;20096;-66
2023/12/31 10:34:22;;;;;;;5.45;2.35;;;;;;;10.24;100.00;99427.47;5100280;28;20048;-66
2023/12/31 10:37:12;;;;;;;5.43;2.38;;;;;;;10.35;100.00;99416.44;5100718;28;20263;-65
2023/12/31 10:40:19;;;;;;;4.78;1.92;;;;;;;10.33;100.00;99432.25;5117071;27;20122;-67
2023/12/31 10:43:08;;;;;;;6.05;2.53;;;;;;;10.39;100.00;99433.78;5135125;27;20044;-67
2023/12/31 10:45:57;;;;;;;5.45;2.22;;;;;;;10.53;100.00;99429.13;5133947;27;20513;-66
2023/12/31 10:49:03;;;;;;;2.92;1.73;;;;;;;10.60;100.00;99434.19;5106205;28;20173;-66
2023/12/31 10:51:53;;;;;;;3.75;1.90;;;;;;;10.49;100.00;99432.81;5086337;28;20423;-66
2023/12/31 10:54:47;;;;;;;2.95;1.92;;;;;;;10.42;100.00;99427.75;5100438;28;20137;-66
2023/12/31 10:57:35;;;;;;;3.65;1.90;;;;;;;10.28;100.00;99438.59;5100079;27;20513;-67
2023/12/31 11:00:23;;;;;;;2.85;1.90;;;;;;;10.13;100.00;99449.75;5134674;27;20119;-67
2023/12/31 11:03:13;;;;;;;5.28;2.28;;;;;;;9.94;100.00;99438.91;5121013;27;20407;-66
2023/12/31 11:06:03;;;;;;;4.97;2.10;;;;;;;9.68;100.00;99452.91;5106373;27;20160;-66
2023/12/31 11:08:53;;;;;;;5.80;2.20;;;;;;;9.53;100.00;99443.06;5070664;28;20252;-67
2023/12/31 11:11:42;;;;;;;4.03;1.70;;;;;;;9.48;100.00;99440.44;5088437;28;20058;-66
2023/12/31 11:14:32;;;;;;;4.95;2.20;;;;;;;9.60;100.00;99434.56;5122239;28;20067;-66
2023/12/31 11:18:01;;;;;;;5.45;2.40;;;;;;;9.68;100.00;99436.59;5094380;28;20044;-64
2023/12/31 11:21:01;;;;;;;3.75;2.22;;;;;;;9.91;100.00;99429.44;5089514;27;20039;-66
2023/12/31 11:24:16;;;;;;;3.78;1.90;;;;;;;9.97;100.00;99422.78;5122550;27;20509;-65
2023/12/31 11:27:23;;;;;;;4.78;1.92;;;;;;;10.10;100.00;99431.28;5130897;27;20051;-65
2023/12/31 11:30:12;;;;;;;4.40;2.28;;;;;;;10.18;100.00;99439.56;5129987;27;20047;-63
2023/12/31 11:33:01;;;;;;;5.00;1.88;;;;;;;10.05;100.00;99432.16;5107034;27;20431;-66
2023/12/31 11:35:52;;;;;;;3.70;1.38;;;;;;;9.78;100.00;99436.41;5123237;27;20039;-66
2023/12/31 11:38:57;;;;;;;4.93;1.90;;;;;;;9.79;100.00;99432.63;5120754;27;20047;-65
2023/12/31 11:41:52;;;;;;;3.17;1.88;;;;;;;9.76;100.00;99435.91;5101879;28;20043;-66
2023/12/31 11:44:43;;;;;;;4.63;2.08;;;;;;;9.78;100.00;99433.69;5097837;28;20044;-66
2023/12/31 11:47:38;;;;;;;5.65;2.38;;;;;;;9.98;100.00;99439.91;5086396;28;20044;-65
2023/12/31 11:50:27;;;;;;;4.38;1.98;;;;;;;10.05;100.00;99429.44;5093252;28;20094;-66
2023/12/31 11:53:15;;;;;;;6.38;2.13;;;;;;;10.12;100.00;99429.88;5084430;28;20051;-66
2023/12/31 11:56:03;;;;;;;5.28;2.10;;;;;;;10.16;100.00;99435.53;5113403;28;20092;-65
2023/12/31 11:58:51;;;;;;;4.80;1.92;;;;;;;10.02;100.00;99430.06;5084455;28;20047;-66
2023/12/31 12:01:43;;;;;;;3.95;1.98;;;;;;;10.13;100.00;99431.50;5104695;27;20050;-67
2023/12/31 12:04:31;;;;;;;4.80;2.38;;;;;;;10.15;100.00;99434.72;5119026;27;20044;-67
2023/12/31 12:07:19;;;;;;;3.28;1.60;;;;;;;10.03;100.00;99431.69;5133685;27;20406;-66
2023/12/31 12:10:08;;;;;;;6.88;2.83;;;;;;;10.19;100.00;99435.72;5119299;27;20043;-66
2023/12/31 12:12:57;;;;;;;3.17;1.58;;;;;;;10.07;100.00;99446.28;5131590;27;20087;-66
2023/12/31 12:15:48;;;;;;;3.63;1.83;;;;;;;9.96;100.00;99442.16;5066027;28;20526;-66
2023/12/31 12:18:35;;;;;;;6.18;2.55;;;;;;;10.01;100.00;99433.88;5077988;28;20036;-66
2023/12/31 12:21:24;;;;;;;5.80;2.20;;;;;;;10.05;100.00;99440.31;5093762;28;20051;-66
2023/12/31 12:24:12;;;;;;;5.63;1.90;;;;;;;9.89;100.00;99449.88;5113598;27;20039;-66
2023/12/31 12:27:01;;;;;;;3.53;1.55;;;;;;;9.66;100.00;99436.06;5108560;28;20134;-65
2023/12/31 12:29:56;;;;;;;3.55;1.90;;;;;;;9.69;100.00;99437.38;5099431;28;20522;-65
2023/12/31 12:32:47;;;;;;;7.55;2.85;;;;;;;9.63;100.00;99439.41;5112165;28;20055;-66
2023/12/31 12:35:43;;;;;;;4.90;2.15;;;;;;;9.79;100.00;99454.38;5079847;28;20036;-64
2023/12/31 12:38:31;;;;;;;;;;;;;;;9.85;100.00;99444.22;5069785;28;20519;-66
2023/12/31 12:41:23;;;;;;;5.47;1.88;;;;;;;9.71;100.00;99440.63;5092688;28;20014;-67
2023/12/31 12:44:13;;;;;;;7.05;2.15;;;;;;;9.65;100.00;99449.97;5098238;27;20515;-66
2023/12/31 12:47:03;;;;;;;7.28;2.45;;;;;;;9.56;100.00;99458.00;5105351;27;20040;-66
2023/12/31 12:49:51;;;;;;;4.80;1.80;;;;;;;9.55;100.00;99448.22;5097697;28;20048;-65
2023/12/31 12:52:40;;;;;;;6.43;2.10;;;;;;;9.50;100.00;99467.31;5083357;28;20077;-65
2023/12/31 12:55:28;;;;;;;4.38;2.00;;;;;;;9.58;100.00;99463.94;5111602;28;20102;-66
2023/12/31 12:58:16;;;;;;;6.70;2.22;;;;;;;9.78;100.00;99462.81;5112237;28;20039;-65
2023/12/31 13:01:04;;;;;;;7.80;2.78;;;;;;;9.78;100.00;99471.78;5112244;28;20044;-65
2023/12/31 13:03:53;;;;;;;7.15;2.38;;;;;;;9.75;100.00;99472.38;5097345;28;20502;-65
2023/12/31 13:06:41;;;;;;;7.10;2.88;;;;;;;9.89;100.00;99482.53;5095911;28;20104;-66
2023/12/31 13:09:29;;;;;;;5.40;2.33;;;;;;;9.95;100.00;99494.94;5098405;28;20082;-65
2023/12/31 13:12:17;;;;;;;8.68;2.67;;;;;;;10.05;100.00;99472.97;5093452;28;20148;-64